KORB

Details ICAO KORB
Name ORR RGNL
Region United States
Timezone America/Chicago (UTC-5.0)
Plans Departing 3
Arriving 1
Stats Elevation 1,311 ft / 400 m (AMSL)
Location 48.015920° -92.856047°
Runways 1
Magnetic Variation 0.555° W
Sunrise 2018-05-23 10:24:54 UTC / 2018-05-23 05:24:54 Local
Sunset 2018-05-24 01:54:21 UTC / 2018-05-23 20:54:21 Local
Advertisement - Login to hide

Runways

ID Width Length Bearing (true) Bearing (mag) Surface Threshold Offset Overrun Length
13 75 ft / 23 m 3,996 ft / 1,218 m 138.22° 138.77° Asphalt 0 ft / 0 m 0 ft / 0 m
31 75 ft / 23 m 3,996 ft / 1,218 m 318.23° 318.78° Asphalt 0 ft / 0 m 0 ft / 0 m

Map

Weather


0- 5 10 15 20 25 30 35+ Temperature / ° C

Clouds and Precipitation
Forecast for 2018-05-24 00:00 UTC. Updated 5 hours ago

Ground ~20,000 ft ~40,000 ft Winds

METAR

KORB 240413Z AUTO 16003KT 10SM SCT055 20/13 A3004 RMK AO2

TAF

Not found

Frequencies

Recorded 118.32 MHz AWOS 3
Unicom 122.80 MHz UNICOM
Warning: Do not use this data for real-world aviation or navigation. No guarantee of current accuracy is given.